createdAt,value
2023-04-26T00:00:55.465Z,4.30
2023-04-26T00:03:43.059Z,4.53
2023-04-26T00:06:31.731Z,4.87
2023-04-26T00:09:19.314Z,4.53
2023-04-26T00:12:06.553Z,5.67
2023-04-26T00:14:53.383Z,4.10
2023-04-26T00:17:41.318Z,6.57
2023-04-26T00:20:28.181Z,4.17
2023-04-26T00:23:17.396Z,6.33
2023-04-26T00:26:04.504Z,5.27
2023-04-26T00:28:51.462Z,2.90
2023-04-26T00:31:38.680Z,4.73
2023-04-26T00:34:25.742Z,5.17
2023-04-26T00:37:12.719Z,3.87
2023-04-26T00:40:00.923Z,4.00
2023-04-26T00:42:47.706Z,4.93
2023-04-26T00:45:35.599Z,4.50
2023-04-26T00:48:22.723Z,6.70
2023-04-26T00:51:09.627Z,7.27
2023-04-26T00:53:57.729Z,4.83
2023-04-26T00:56:46.059Z,5.07
2023-04-26T00:59:34.769Z,4.87
2023-04-26T01:02:21.702Z,5.53
2023-04-26T01:05:10.063Z,12.27
2023-04-26T01:07:57.763Z,5.33
2023-04-26T01:10:45.176Z,55.63
2023-04-26T01:13:33.922Z,72.30
2023-04-26T01:16:21.839Z,19.43
2023-04-26T01:19:11.071Z,97.90
2023-04-26T01:21:58.227Z,76.00
2023-04-26T01:24:51.369Z,15.70
2023-04-26T01:27:38.031Z,6.57
2023-04-26T01:30:25.041Z,6.40
2023-04-26T01:33:12.593Z,8.57
2023-04-26T01:35:59.408Z,6.07
2023-04-26T01:38:47.664Z,7.37
2023-04-26T01:41:35.940Z,6.37
2023-04-26T01:44:22.666Z,5.93
2023-04-26T01:47:09.372Z,6.70
2023-04-26T01:49:56.446Z,5.27
2023-04-26T01:52:43.270Z,6.13
2023-04-26T01:55:30.120Z,5.10
2023-04-26T01:58:19.225Z,6.97
2023-04-26T02:01:08.009Z,6.17
2023-04-26T02:03:54.664Z,6.30
2023-04-26T02:06:42.267Z,6.47
2023-04-26T02:09:29.032Z,6.67
2023-04-26T02:12:15.831Z,7.33
2023-04-26T02:15:04.893Z,5.83
2023-04-26T02:17:53.699Z,7.10
2023-04-26T02:20:43.416Z,7.43
2023-04-26T02:23:30.492Z,5.73
2023-04-26T02:26:18.788Z,7.30
2023-04-26T02:29:06.445Z,8.13
2023-04-26T02:31:55.069Z,7.73
2023-04-26T02:34:42.956Z,7.00
2023-04-26T02:37:29.844Z,10.13
2023-04-26T02:40:17.091Z,10.77
2023-04-26T02:43:03.900Z,8.33
2023-04-26T02:45:50.669Z,16.63
2023-04-26T02:48:38.730Z,9.23
2023-04-26T02:51:25.436Z,13.60
2023-04-26T02:54:12.438Z,8.47
2023-04-26T02:56:59.344Z,7.30
2023-04-26T02:59:46.342Z,5.27
2023-04-26T03:02:33.714Z,8.50
2023-04-26T03:05:22.769Z,5.37
2023-04-26T03:08:10.150Z,8.33
2023-04-26T03:10:57.282Z,3.93
2023-04-26T03:13:43.886Z,6.23
2023-04-26T03:16:30.667Z,6.17
2023-04-26T03:19:17.307Z,3.90
2023-04-26T03:22:05.856Z,4.27
2023-04-26T03:24:52.388Z,5.80
2023-04-26T03:27:39.657Z,6.87
2023-04-26T03:30:27.003Z,4.83
2023-04-26T03:33:14.816Z,4.23
2023-04-26T03:36:01.931Z,5.63
2023-04-26T03:38:50.561Z,4.47
2023-04-26T03:41:39.722Z,5.50
2023-04-26T03:44:27.349Z,5.97
2023-04-26T03:47:15.912Z,6.53
2023-04-26T03:50:03.518Z,5.70
2023-04-26T03:52:50.476Z,6.27
2023-04-26T03:55:38.790Z,4.70
2023-04-26T03:58:25.997Z,5.03
2023-04-26T04:01:12.823Z,7.40
2023-04-26T04:04:00.598Z,14.13
2023-04-26T04:06:47.540Z,7.00
2023-04-26T04:09:34.405Z,8.73
2023-04-26T04:12:23.109Z,7.33
2023-04-26T04:15:11.586Z,6.93
2023-04-26T04:17:58.228Z,6.67
2023-04-26T04:20:45.172Z,5.07
2023-04-26T04:23:31.896Z,4.97
2023-04-26T04:26:19.239Z,5.63
2023-04-26T04:29:09.603Z,4.30
2023-04-26T04:31:56.579Z,5.17
2023-04-26T04:34:43.225Z,28.13
2023-04-26T04:37:32.134Z,29.87
2023-04-26T04:40:19.188Z,12.40
2023-04-26T04:43:05.696Z,21.73
2023-04-26T04:45:53.944Z,44.83
2023-04-26T04:48:41.541Z,65.03
2023-04-26T04:51:28.858Z,18.47
2023-04-26T04:54:16.508Z,32.57
2023-04-26T04:57:04.091Z,56.60
2023-04-26T04:59:51.306Z,99.53
2023-04-26T05:02:39.528Z,12.60
2023-04-26T05:05:26.391Z,56.10
2023-04-26T05:08:13.133Z,39.83
2023-04-26T05:10:59.856Z,173.13
2023-04-26T05:13:47.325Z,127.13
2023-04-26T05:16:59.108Z,104.47
2023-04-26T05:19:47.319Z,69.33
2023-04-26T05:22:36.663Z,72.57
2023-04-26T05:25:23.390Z,89.70
2023-04-26T05:28:12.881Z,127.43
2023-04-26T05:30:59.999Z,109.43
2023-04-26T05:33:46.623Z,15.73
2023-04-26T05:36:34.869Z,27.53
2023-04-26T05:39:21.735Z,30.03
2023-04-26T05:42:08.578Z,60.80
2023-04-26T05:44:59.123Z,157.23
2023-04-26T05:47:47.621Z,117.40
2023-04-26T05:50:34.459Z,165.90
2023-04-26T05:53:22.757Z,63.67
2023-04-26T05:56:09.755Z,60.30
2023-04-26T05:58:56.572Z,43.83
2023-04-26T06:01:58.425Z,29.60
2023-04-26T06:04:46.397Z,109.83
2023-04-26T06:07:33.625Z,27.40
2023-04-26T06:10:22.461Z,72.97
2023-04-26T06:13:09.449Z,18.73
2023-04-26T06:15:56.281Z,44.30
2023-04-26T06:18:43.129Z,16.70
2023-04-26T06:21:31.200Z,13.30
2023-04-26T06:24:18.565Z,59.93
2023-04-26T06:27:06.999Z,94.23
2023-04-26T06:29:53.600Z,42.70
2023-04-26T06:32:42.450Z,36.23
2023-04-26T06:35:29.358Z,34.57
2023-04-26T06:38:16.493Z,48.97
2023-04-26T06:41:03.093Z,20.13
2023-04-26T06:43:51.737Z,36.17
2023-04-26T06:46:39.146Z,66.53
2023-04-26T06:49:27.200Z,65.63
2023-04-26T06:52:14.279Z,42.47
2023-04-26T06:55:03.823Z,40.47
2023-04-26T06:57:51.796Z,22.30
2023-04-26T07:00:40.216Z,16.47
2023-04-26T07:03:31.065Z,14.53
2023-04-26T07:06:18.030Z,11.67
2023-04-26T07:09:05.135Z,25.10
2023-04-26T07:11:51.703Z,14.73
2023-04-26T07:14:40.671Z,7.53
2023-04-26T07:17:29.488Z,20.57
2023-04-26T07:20:19.888Z,6.97
2023-04-26T07:23:08.118Z,7.90
2023-04-26T07:25:55.788Z,10.30
2023-04-26T07:28:44.007Z,21.87
2023-04-26T07:31:32.535Z,6.20
2023-04-26T07:34:20.899Z,7.63
2023-04-26T07:37:07.934Z,5.73
2023-04-26T07:39:54.947Z,4.60
2023-04-26T07:42:42.113Z,4.30
2023-04-26T07:45:28.960Z,5.60
2023-04-26T07:48:16.721Z,4.97
2023-04-26T07:51:11.251Z,6.63
2023-04-26T07:53:58.067Z,5.03
2023-04-26T07:56:45.022Z,6.70
2023-04-26T07:59:31.681Z,5.97
2023-04-26T08:02:20.384Z,5.90
2023-04-26T08:05:10.587Z,4.88
2023-04-26T08:07:58.764Z,4.57
2023-04-26T08:10:45.890Z,4.55
2023-04-26T08:13:34.071Z,4.72
2023-04-26T08:16:20.774Z,3.15
2023-04-26T08:19:07.614Z,4.47
2023-04-26T08:21:54.307Z,4.25
2023-04-26T08:24:42.426Z,5.03
2023-04-26T08:27:29.358Z,4.47
2023-04-26T08:30:16.385Z,2.97
2023-04-26T08:33:03.252Z,4.00
2023-04-26T08:35:50.328Z,3.28
2023-04-26T08:38:37.556Z,3.60
2023-04-26T08:41:26.823Z,4.95
2023-04-26T08:44:13.803Z,3.50
2023-04-26T08:47:05.221Z,6.40
2023-04-26T08:49:59.640Z,3.28
2023-04-26T08:52:49.726Z,2.90
2023-04-26T08:55:37.911Z,1.92
2023-04-26T08:58:27.156Z,5.78
2023-04-26T09:01:16.461Z,2.77
2023-04-26T09:04:04.675Z,4.83
2023-04-26T09:06:52.932Z,2.43
2023-04-26T09:09:43.840Z,3.60
2023-04-26T09:12:30.657Z,5.75
2023-04-26T09:15:19.454Z,3.03
2023-04-26T09:18:20.413Z,5.28
2023-04-26T09:21:08.302Z,2.58
2023-04-26T09:24:04.442Z,2.72
2023-04-26T09:27:03.824Z,2.60
2023-04-26T09:30:00.942Z,4.93
2023-04-26T09:32:52.236Z,2.90
2023-04-26T09:35:40.907Z,4.53
2023-04-26T09:38:27.804Z,3.10
2023-04-26T09:41:14.504Z,3.42
2023-04-26T09:44:01.518Z,3.00
2023-04-26T09:46:59.938Z,4.25
2023-04-26T09:49:50.566Z,3.70
2023-04-26T09:52:44.509Z,3.35
2023-04-26T09:55:35.284Z,4.97
2023-04-26T09:58:23.161Z,4.03
2023-04-26T10:01:10.263Z,4.90
2023-04-26T10:03:58.359Z,2.50
2023-04-26T10:06:47.353Z,3.35
2023-04-26T10:09:34.440Z,3.65
2023-04-26T10:12:21.669Z,5.90
2023-04-26T10:15:11.086Z,4.90
2023-04-26T10:17:58.414Z,2.70
2023-04-26T10:20:52.333Z,3.15
2023-04-26T10:23:42.122Z,3.45
2023-04-26T10:26:51.688Z,4.95
2023-04-26T10:30:12.248Z,3.42
2023-04-26T10:33:23.889Z,3.63
2023-04-26T10:36:13.468Z,5.00
2023-04-26T10:39:23.370Z,2.58
2023-04-26T10:42:24.097Z,2.30
2023-04-26T10:45:28.399Z,3.28
2023-04-26T10:48:17.384Z,2.78
2023-04-26T10:51:12.615Z,4.35
2023-04-26T10:54:00.959Z,3.65
2023-04-26T10:56:55.640Z,3.15
2023-04-26T11:00:02.367Z,2.03
2023-04-26T11:02:57.490Z,3.58
2023-04-26T11:05:55.658Z,2.67
2023-04-26T11:08:43.277Z,4.25
2023-04-26T11:11:32.850Z,2.85
2023-04-26T11:14:23.345Z,3.65
2023-04-26T11:17:11.044Z,4.10
2023-04-26T11:19:57.954Z,2.42
2023-04-26T11:22:45.621Z,2.92
2023-04-26T11:25:32.886Z,3.85
2023-04-26T11:28:22.202Z,6.80
2023-04-26T11:31:10.607Z,3.40
2023-04-26T11:34:05.138Z,5.47
2023-04-26T11:36:55.271Z,3.00
2023-04-26T11:39:42.252Z,4.20
2023-04-26T11:42:28.850Z,7.45
2023-04-26T11:45:17.508Z,4.78
2023-04-26T11:48:08.622Z,5.40
2023-04-26T11:50:57.730Z,3.92
2023-04-26T11:53:45.615Z,6.38
2023-04-26T11:56:32.807Z,6.47
2023-04-26T11:59:25.441Z,4.60
2023-04-26T12:02:13.130Z,4.65
2023-04-26T12:05:01.994Z,8.57
2023-04-26T12:07:52.220Z,6.47
2023-04-26T12:10:39.931Z,3.78
2023-04-26T12:13:27.372Z,3.22
2023-04-26T12:16:25.722Z,4.90
2023-04-26T12:19:13.472Z,5.47
2023-04-26T12:22:01.833Z,6.13
2023-04-26T12:24:48.967Z,4.97
2023-04-26T12:27:36.097Z,5.75
2023-04-26T12:30:23.181Z,5.07
2023-04-26T12:33:17.188Z,6.05
2023-04-26T12:36:12.287Z,4.95
2023-04-26T12:39:03.758Z,7.07
2023-04-26T12:41:50.276Z,6.43
2023-04-26T12:44:37.693Z,5.65
2023-04-26T12:47:25.074Z,3.95
2023-04-26T12:50:13.123Z,5.35
2023-04-26T12:52:59.883Z,5.43
2023-04-26T12:55:48.226Z,6.82
2023-04-26T12:58:35.032Z,7.35
2023-04-26T13:01:21.926Z,7.68
2023-04-26T13:04:10.230Z,5.40
2023-04-26T13:06:57.318Z,12.80
2023-04-26T13:09:44.057Z,7.03
2023-04-26T13:12:32.345Z,4.93
2023-04-26T13:15:19.721Z,5.95
2023-04-26T13:18:07.035Z,3.92
2023-04-26T13:20:54.227Z,3.47
2023-04-26T13:23:41.333Z,7.38
2023-04-26T13:26:28.404Z,2.97
2023-04-26T13:29:16.323Z,4.22
2023-04-26T13:32:03.910Z,6.13
2023-04-26T13:34:51.854Z,5.10
2023-04-26T13:37:38.747Z,3.38
2023-04-26T13:40:25.774Z,4.07
2023-04-26T13:43:12.887Z,2.78
2023-04-26T13:46:01.688Z,6.18
2023-04-26T13:48:48.870Z,4.32
2023-04-26T13:51:36.109Z,5.72
2023-04-26T13:54:23.323Z,3.28
2023-04-26T13:57:10.242Z,4.97
2023-04-26T13:59:56.944Z,4.18
2023-04-26T14:02:45.275Z,5.20
2023-04-26T14:05:32.198Z,3.15
2023-04-26T14:08:19.118Z,4.43
2023-04-26T14:11:06.461Z,5.03
2023-04-26T14:13:56.111Z,5.13
2023-04-26T14:16:43.140Z,4.60
2023-04-26T14:19:31.609Z,3.63
2023-04-26T14:22:18.285Z,4.35
2023-04-26T14:25:05.973Z,4.30
2023-04-26T14:27:53.655Z,7.32
2023-04-26T14:30:40.824Z,8.93
2023-04-26T14:33:27.924Z,4.07
2023-04-26T14:36:16.311Z,6.47
2023-04-26T14:39:03.448Z,5.65
2023-04-26T14:41:50.303Z,4.63
2023-04-26T14:44:37.642Z,5.35
2023-04-26T14:47:24.719Z,5.13
2023-04-26T14:50:13.955Z,5.28
2023-04-26T14:53:02.016Z,5.63
2023-04-26T14:55:56.190Z,7.45
2023-04-26T14:58:43.374Z,4.40
2023-04-26T15:01:30.746Z,4.72
2023-04-26T15:04:17.698Z,3.78
2023-04-26T15:07:05.018Z,5.28
2023-04-26T15:09:53.449Z,7.68
2023-04-26T15:12:40.425Z,4.82
2023-04-26T15:15:27.480Z,6.55
2023-04-26T15:18:14.668Z,5.30
2023-04-26T15:21:01.805Z,6.95
2023-04-26T15:23:48.549Z,4.70
2023-04-26T15:26:37.064Z,5.53
2023-04-26T15:29:24.126Z,6.38
2023-04-26T15:32:11.426Z,5.18
2023-04-26T15:34:58.158Z,5.35
2023-04-26T15:37:45.506Z,6.90
2023-04-26T15:40:32.568Z,4.32
2023-04-26T15:43:20.720Z,4.85
2023-04-26T15:46:07.579Z,4.93
2023-04-26T15:48:54.869Z,4.32
2023-04-26T15:51:41.465Z,3.97
2023-04-26T15:54:28.435Z,5.65
2023-04-26T15:57:15.266Z,4.85
2023-04-26T16:00:04.853Z,6.68
2023-04-26T16:02:51.507Z,3.35
2023-04-26T16:05:38.282Z,4.23
2023-04-26T16:08:39.318Z,5.65
2023-04-26T16:11:27.138Z,6.13
2023-04-26T16:14:14.085Z,5.05
2023-04-26T16:17:04.754Z,6.13
2023-04-26T16:19:51.698Z,4.72
2023-04-26T16:22:38.227Z,6.07
2023-04-26T16:25:25.890Z,2.70
2023-04-26T16:28:12.618Z,4.18
2023-04-26T16:30:59.718Z,4.07
2023-04-26T16:33:47.997Z,6.20
2023-04-26T16:36:35.073Z,5.05
2023-04-26T16:39:23.305Z,3.60
2023-04-26T16:42:10.265Z,6.40
2023-04-26T16:44:57.231Z,5.60
2023-04-26T16:47:44.413Z,4.70
2023-04-26T16:50:32.716Z,7.72
2023-04-26T16:53:21.177Z,3.75
2023-04-26T16:56:09.410Z,6.05
2023-04-26T16:58:56.489Z,4.30
2023-04-26T17:01:43.195Z,4.77
2023-04-26T17:04:30.152Z,4.03
2023-04-26T17:07:18.422Z,5.68
2023-04-26T17:10:06.046Z,4.83
2023-04-26T17:12:52.892Z,5.07
2023-04-26T17:15:40.908Z,3.63
2023-04-26T17:18:27.772Z,5.50
2023-04-26T17:21:14.682Z,7.43
2023-04-26T17:24:03.637Z,7.50
2023-04-26T17:26:50.282Z,8.20
2023-04-26T17:29:37.345Z,5.73
2023-04-26T17:32:24.759Z,5.00
2023-04-26T17:35:11.834Z,4.90
2023-04-26T17:37:58.701Z,3.60
2023-04-26T17:40:47.038Z,4.83
2023-04-26T17:43:34.272Z,6.03
2023-04-26T17:46:21.156Z,3.50
2023-04-26T17:49:07.914Z,4.60
2023-04-26T17:51:54.925Z,6.97
2023-04-26T17:54:42.308Z,4.40
2023-04-26T17:57:30.269Z,4.60
2023-04-26T18:00:18.128Z,3.80
2023-04-26T18:03:06.593Z,2.97
2023-04-26T18:05:53.808Z,5.30
2023-04-26T18:08:41.073Z,4.40
2023-04-26T18:11:28.201Z,4.70
2023-04-26T18:14:16.681Z,5.07
2023-04-26T18:17:05.125Z,4.13
2023-04-26T18:19:51.982Z,5.90
2023-04-26T18:22:38.936Z,2.80
2023-04-26T18:25:25.542Z,5.40
2023-04-26T18:28:12.645Z,7.37
2023-04-26T18:31:02.321Z,3.30
2023-04-26T18:33:50.422Z,2.27
2023-04-26T18:36:37.350Z,5.03
2023-04-26T18:39:24.200Z,5.33
2023-04-26T18:42:10.999Z,4.60
2023-04-26T18:44:57.654Z,3.67
2023-04-26T18:47:45.939Z,4.60
2023-04-26T18:50:33.054Z,4.00
2023-04-26T18:53:20.181Z,4.13
2023-04-26T18:56:07.721Z,5.53
2023-04-26T18:58:54.708Z,7.27
2023-04-26T19:01:42.085Z,8.13
2023-04-26T19:04:30.969Z,9.50
2023-04-26T19:07:18.440Z,4.87
2023-04-26T19:10:07.044Z,4.67
2023-04-26T19:12:53.973Z,4.60
2023-04-26T19:15:41.092Z,9.73
2023-04-26T19:18:28.206Z,8.70
2023-04-26T19:21:16.281Z,7.57
2023-04-26T19:24:04.425Z,8.30
2023-04-26T19:26:51.465Z,9.57
2023-04-26T19:29:38.225Z,9.97
2023-04-26T19:32:24.938Z,8.83
2023-04-26T19:35:11.601Z,9.53
2023-04-26T19:37:59.763Z,15.80
2023-04-26T19:40:46.495Z,10.70
2023-04-26T19:43:33.921Z,11.00
2023-04-26T19:46:20.876Z,12.20
2023-04-26T19:49:07.765Z,10.03
2023-04-26T19:51:54.952Z,9.93
2023-04-26T19:54:43.050Z,8.87
2023-04-26T19:57:29.846Z,8.70
2023-04-26T20:00:17.156Z,7.03
2023-04-26T20:03:04.610Z,8.37
2023-04-26T20:05:51.752Z,9.53
2023-04-26T20:08:38.611Z,8.10
2023-04-26T20:11:27.112Z,8.43
2023-04-26T20:14:13.996Z,8.83
2023-04-26T20:17:02.485Z,4.13
2023-04-26T20:19:49.855Z,6.70
2023-04-26T20:22:36.849Z,6.67
2023-04-26T20:25:23.722Z,8.57
2023-04-26T20:28:11.948Z,11.47
2023-04-26T20:30:58.681Z,13.33
2023-04-26T20:33:45.489Z,15.00
2023-04-26T20:36:33.491Z,11.13
2023-04-26T20:39:21.881Z,12.33
2023-04-26T20:42:09.693Z,8.90
2023-04-26T20:44:58.825Z,12.90
2023-04-26T20:47:47.986Z,9.97
2023-04-26T20:50:36.392Z,11.67
2023-04-26T20:53:23.522Z,9.40
2023-04-26T20:56:10.530Z,8.17
2023-04-26T20:58:57.735Z,9.87
2023-04-26T21:01:46.254Z,11.60
2023-04-26T21:04:33.384Z,13.93
2023-04-26T21:07:19.984Z,7.43
2023-04-26T21:10:07.994Z,11.77
2023-04-26T21:12:54.765Z,7.67
2023-04-26T21:15:41.531Z,6.97
2023-04-26T21:18:29.863Z,9.03
2023-04-26T21:21:17.004Z,8.20
2023-04-26T21:24:04.415Z,8.13
2023-04-26T21:26:51.238Z,7.53
2023-04-26T21:29:38.290Z,8.80
2023-04-26T21:32:25.104Z,10.27
2023-04-26T21:35:13.344Z,9.50
2023-04-26T21:37:59.770Z,6.97
2023-04-26T21:40:46.697Z,6.10
2023-04-26T21:43:33.920Z,9.43
2023-04-26T21:46:20.530Z,8.93
2023-04-26T21:49:07.754Z,7.57
2023-04-26T21:51:56.722Z,6.63
2023-04-26T21:54:43.319Z,9.87
2023-04-26T21:57:30.013Z,7.73
2023-04-26T22:00:17.286Z,11.13
2023-04-26T22:03:04.106Z,6.10
2023-04-26T22:05:51.615Z,12.27
2023-04-26T22:08:40.508Z,8.20
2023-04-26T22:11:27.564Z,10.23
2023-04-26T22:14:14.548Z,6.93
2023-04-26T22:17:02.201Z,6.60
2023-04-26T22:19:49.849Z,7.97
2023-04-26T22:22:36.651Z,8.77
2023-04-26T22:25:26.656Z,9.27
2023-04-26T22:28:13.462Z,7.80
2023-04-26T22:31:00.154Z,7.00
2023-04-26T22:33:46.953Z,8.47
2023-04-26T22:36:33.645Z,9.77
2023-04-26T22:39:20.634Z,8.87
2023-04-26T22:42:08.983Z,11.93
2023-04-26T22:44:55.896Z,8.20
2023-04-26T22:47:42.907Z,7.17
2023-04-26T22:50:30.067Z,7.20
2023-04-26T22:53:16.813Z,8.60
2023-04-26T22:56:04.545Z,8.00
2023-04-26T22:58:53.045Z,8.70
2023-04-26T23:01:40.261Z,6.50
2023-04-26T23:04:27.256Z,8.97
2023-04-26T23:07:14.235Z,7.73
2023-04-26T23:10:01.249Z,7.00
2023-04-26T23:12:49.290Z,7.67
2023-04-26T23:15:38.196Z,6.67
2023-04-26T23:18:26.479Z,9.37
2023-04-26T23:21:13.816Z,6.97
2023-04-26T23:24:00.621Z,7.13
2023-04-26T23:26:47.535Z,6.07
2023-04-26T23:29:34.195Z,8.27
2023-04-26T23:32:22.202Z,8.97
2023-04-26T23:35:09.966Z,10.30
2023-04-26T23:37:57.279Z,7.43
2023-04-26T23:40:43.974Z,6.57
2023-04-26T23:43:30.721Z,6.40
2023-04-26T23:46:17.320Z,6.00
2023-04-26T23:49:05.655Z,7.93
2023-04-26T23:51:52.867Z,7.57
2023-04-26T23:54:39.928Z,7.77
2023-04-26T23:57:26.630Z,7.20
